Time;durP1;ratioP1;P1;durP2;ratioP2;P2;SDS_P1;SDS_P2;PMS_P1;PMS_P2;Temp;Humidity;BMP_temperature;BMP_pressure;BME280_temperature;BME280_humidity;BME280_pressure;Samples;Min_cycle;Max_cycle;Signal;HPM_P1;HPM_P2
2024/02/02 00:00:57;;;;;;;49.80;31.30;;;;;;;4.12;100.00;100579.17;106132;1251;60431;-83
2024/02/02 00:03:24;;;;;;;52.30;31.20;;;;;;;4.10;100.00;100575.08;105993;1250;60547;-83
2024/02/02 00:05:51;;;;;;;46.10;31.90;;;;;;;4.10;100.00;100574.21;106043;1250;73847;-84
2024/02/02 00:08:17;;;;;;;44.80;30.90;;;;;;;4.08;100.00;100570.13;106115;1254;64150;-84
2024/02/02 00:10:44;;;;;;;50.40;32.80;;;;;;;4.07;100.00;100566.89;106023;1250;71400;-84
2024/02/02 00:13:12;;;;;;;48.40;30.30;;;;;;;4.05;100.00;100567.14;106113;1254;61076;-84
2024/02/02 00:15:40;;;;;;;42.30;29.60;;;;;;;4.02;100.00;100567.90;106114;1251;61856;-83
2024/02/02 00:18:06;;;;;;;51.00;31.80;;;;;;;3.98;100.00;100566.84;106117;1254;74249;-83
2024/02/02 00:20:33;;;;;;;50.60;32.30;;;;;;;3.92;100.00;100569.27;106224;1253;63932;-83
2024/02/02 00:23:01;;;;;;;48.30;31.30;;;;;;;3.87;100.00;100570.33;105978;1250;72655;-84
2024/02/02 00:25:28;;;;;;;49.20;30.60;;;;;;;3.82;100.00;100568.42;106327;1254;61550;-83
2024/02/02 00:27:55;;;;;;;49.90;32.50;;;;;;;3.76;100.00;100564.64;106228;1254;60606;-83
2024/02/02 00:30:22;;;;;;;51.30;32.50;;;;;;;3.68;100.00;100564.36;106823;1254;71460;-82
2024/02/02 00:32:50;;;;;;;51.40;33.70;;;;;;;3.57;100.00;100561.60;106265;1250;62798;-83
2024/02/02 00:35:18;;;;;;;49.20;31.70;;;;;;;3.47;100.00;100558.46;106186;1250;72770;-83
2024/02/02 00:37:47;;;;;;;57.90;33.70;;;;;;;3.39;100.00;100552.17;106057;1251;61174;-83
2024/02/02 00:47:00;;;;;;;53.40;34.10;;;;;;;3.05;100.00;100549.21;104851;1270;63736;-83
2024/02/02 00:49:27;;;;;;;55.80;34.80;;;;;;;2.96;100.00;100551.39;105011;1267;72721;-81
2024/02/02 00:51:54;;;;;;;52.10;35.70;;;;;;;2.89;100.00;100554.71;105082;1271;61093;-80
2024/02/02 00:54:21;;;;;;;54.80;35.00;;;;;;;2.85;100.00;100555.34;104854;1267;60814;-81
2024/02/02 00:56:48;;;;;;;60.80;36.90;;;;;;;2.82;100.00;100551.13;104843;1267;73736;-81
2024/02/02 00:59:15;;;;;;;56.90;34.10;;;;;;;2.78;100.00;100551.21;104859;1267;62599;-84
2024/02/02 01:01:42;;;;;;;53.90;34.00;;;;;;;2.74;100.00;100544.10;104880;1270;72693;-81
2024/02/02 01:04:09;;;;;;;59.70;36.00;;;;;;;2.68;100.00;100540.81;104858;1270;60573;-83
2024/02/02 01:06:37;;;;;;;57.90;35.50;;;;;;;2.64;100.00;100537.13;104863;1270;60366;-82
2024/02/02 01:09:04;;;;;;;62.80;36.70;;;;;;;2.60;100.00;100539.33;104718;1268;72291;-83
2024/02/02 01:11:32;;;;;;;56.90;34.60;;;;;;;2.56;100.00;100544.43;104876;1270;64080;-83
2024/02/02 01:13:59;;;;;;;57.50;33.50;;;;;;;2.53;100.00;100543.84;104715;1267;71275;-82
2024/02/02 01:16:26;;;;;;;49.60;33.00;;;;;;;2.47;100.00;100538.79;104726;1268;60447;-82
2024/02/02 01:18:53;;;;;;;53.20;32.70;;;;;;;2.42;100.00;100531.37;105085;1267;60485;-81
2024/02/02 01:21:20;;;;;;;52.40;34.50;;;;;;;2.38;100.00;100532.66;105815;1267;73939;-80
2024/02/02 01:23:48;;;;;;;50.00;31.60;;;;;;;2.36;100.00;100526.52;105025;1270;63952;-81
2024/02/02 01:26:15;;;;;;;50.30;32.40;;;;;;;2.37;100.00;100522.17;104865;1267;72598;-81
2024/02/02 01:28:42;;;;;;;55.20;32.90;;;;;;;2.40;100.00;100521.94;104826;1267;61150;-82
2024/02/02 01:31:10;;;;;;;54.30;32.70;;;;;;;2.43;100.00;100521.32;104833;1267;60606;-82
2024/02/02 01:33:37;;;;;;;51.80;32.10;;;;;;;2.48;100.00;100517.73;104888;1270;72986;-82
2024/02/02 01:36:04;;;;;;;53.90;33.10;;;;;;;2.53;100.00;100513.30;104876;1270;63667;-82
2024/02/02 01:38:31;;;;;;;46.90;30.50;;;;;;;2.56;100.00;100513.52;104820;1271;72648;-81
2024/02/02 01:40:57;;;;;;;50.20;31.50;;;;;;;2.60;100.00;100512.39;104865;1268;60898;-82
2024/02/02 01:43:26;;;;;;;48.00;31.00;;;;;;;2.62;100.00;100511.98;104835;1270;60482;-82
2024/02/02 01:45:52;;;;;;;46.80;31.70;;;;;;;2.67;100.00;100514.60;104774;1270;72470;-82
2024/02/02 01:48:19;;;;;;;48.80;30.50;;;;;;;2.72;100.00;100512.05;104891;1268;64077;-80
2024/02/02 01:50:47;;;;;;;51.10;31.00;;;;;;;2.75;100.00;100515.05;104830;1270;72392;-79
2024/02/02 02:04:14;;;;;;;44.40;30.00;;;;;;;2.95;100.00;100503.08;102679;1294;616316;-82
2024/02/02 02:06:44;;;;;;;49.00;31.00;;;;;;;2.99;100.00;100507.44;105194;1268;59353;-83
2024/02/02 02:09:10;;;;;;;48.00;29.50;;;;;;;3.05;100.00;100512.63;105077;1269;59193;-82
2024/02/02 02:11:37;;;;;;;46.10;31.50;;;;;;;3.08;100.00;100516.14;105671;1260;72116;-82
2024/02/02 02:14:04;;;;;;;42.00;29.50;;;;;;;3.12;100.00;100514.64;105320;1263;64022;-81
2024/02/02 02:16:32;;;;;;;48.40;30.50;;;;;;;3.16;100.00;100513.65;105422;1260;160110;-82
2024/02/02 02:19:01;;;;;;;48.80;28.90;;;;;;;3.19;100.00;100513.90;105619;1260;61123;-80
2024/02/02 02:21:30;;;;;;;55.10;31.80;;;;;;;3.22;100.00;100509.30;105736;1254;60107;-80
2024/02/02 02:23:57;;;;;;;47.80;30.10;;;;;;;3.26;100.00;100508.34;105646;1259;72022;-81
2024/02/02 02:26:26;;;;;;;43.90;28.70;;;;;;;3.29;100.00;100506.50;105618;1254;63640;-80
2024/02/02 02:28:53;;;;;;;48.80;29.60;;;;;;;3.33;100.00;100511.23;105680;1254;71690;-82
2024/02/02 02:31:20;;;;;;;43.40;28.90;;;;;;;3.35;100.00;100513.05;105737;1257;61180;-79
2024/02/02 02:33:47;;;;;;;44.90;28.60;;;;;;;3.37;100.00;100511.61;106744;1254;60022;-81
2024/02/02 02:36:15;;;;;;;46.30;28.30;;;;;;;3.36;100.00;100515.10;105898;1254;73189;-83
2024/02/02 02:38:43;;;;;;;44.10;27.20;;;;;;;3.38;100.00;100516.27;105865;1254;63797;-80
2024/02/02 02:41:10;;;;;;;41.40;29.40;;;;;;;3.39;100.00;100515.70;106262;1253;71143;-79
2024/02/02 02:43:37;;;;;;;48.00;30.90;;;;;;;3.42;100.00;100517.83;108562;1253;60038;-79
2024/02/02 02:46:04;;;;;;;43.40;29.20;;;;;;;3.46;100.00;100522.20;106776;1254;59633;-81
2024/02/02 02:48:31;;;;;;;42.30;28.00;;;;;;;3.49;100.00;100523.84;106043;1254;73047;-81
2024/02/02 02:50:58;;;;;;;47.40;28.80;;;;;;;3.51;100.00;100524.29;105746;1257;63870;-81
2024/02/02 02:53:25;;;;;;;44.30;29.40;;;;;;;3.55;100.00;100526.95;105757;1257;72632;-79
2024/02/02 02:55:52;;;;;;;40.50;30.30;;;;;;;3.58;100.00;100530.30;105709;1257;60347;-80
2024/02/02 02:58:20;;;;;;;40.60;28.90;;;;;;;3.59;100.00;100535.77;105836;1255;59673;-81
2024/02/02 03:00:47;;;;;;;45.70;29.60;;;;;;;3.59;100.00;100537.01;105908;1257;73094;-82
2024/02/02 03:03:14;;;;;;;45.50;31.50;;;;;;;3.59;100.00;100539.78;105880;1257;63540;-82
2024/02/02 03:05:41;;;;;;;48.60;32.80;;;;;;;3.59;100.00;100539.42;105764;1254;72693;-81
2024/02/02 03:08:08;;;;;;;52.10;32.30;;;;;;;3.61;100.00;100537.45;105753;1257;60095;-83
2024/02/02 03:10:34;;;;;;;48.30;31.80;;;;;;;3.64;100.00;100543.08;106039;1256;59613;-80
2024/02/02 03:13:01;;;;;;;49.60;32.30;;;;;;;3.67;100.00;100549.38;106755;1251;71577;-79
2024/02/02 03:15:31;;;;;;;54.30;34.60;;;;;;;3.69;100.00;100548.25;108257;1250;62568;-82
2024/02/02 03:17:58;;;;;;;52.80;36.90;;;;;;;3.72;100.00;100545.57;106502;1257;72759;-78
2024/02/02 03:20:26;;;;;;;51.30;35.90;;;;;;;3.74;100.00;100542.20;106104;1254;61207;-80
2024/02/02 03:22:55;;;;;;;52.50;36.50;;;;;;;3.76;100.00;100540.43;105886;1254;59654;-81
2024/02/02 03:25:23;;;;;;;56.40;36.70;;;;;;;3.77;100.00;100543.66;105921;1254;72976;-82
2024/02/02 03:27:50;;;;;;;66.20;40.10;;;;;;;3.78;100.00;100545.55;105866;1251;63001;-81
2024/02/02 03:30:17;;;;;;;59.00;37.90;;;;;;;3.77;100.00;100543.67;105989;1251;71439;-82
2024/02/02 03:32:44;;;;;;;64.90;40.20;;;;;;;3.78;100.00;100544.67;105967;1251;61170;-81
2024/02/02 03:35:12;;;;;;;58.50;40.30;;;;;;;3.81;100.00;100546.30;106027;1251;59573;-82
2024/02/02 03:37:39;;;;;;;63.30;41.60;;;;;;;3.80;100.00;100541.68;105906;1251;73130;-80
2024/02/02 03:40:08;;;;;;;65.40;42.10;;;;;;;3.78;100.00;100545.02;105961;1250;63656;-81
2024/02/02 03:42:35;;;;;;;62.50;40.30;;;;;;;3.77;100.00;100546.10;106534;1251;72577;-80
2024/02/02 03:45:03;;;;;;;68.50;41.80;;;;;;;3.73;100.00;100545.88;106858;1254;60110;-81
2024/02/02 03:47:31;;;;;;;66.70;41.40;;;;;;;3.69;100.00;100544.98;105950;1252;60200;-82
2024/02/02 03:49:58;;;;;;;61.40;42.10;;;;;;;3.64;100.00;100549.30;106028;1251;71803;-82
2024/02/02 03:52:26;;;;;;;65.20;42.90;;;;;;;3.63;100.00;100549.14;105958;1251;63826;-83
2024/02/02 03:54:53;;;;;;;65.00;41.40;;;;;;;3.65;100.00;100549.27;105902;1256;72590;-82
2024/02/02 03:57:20;;;;;;;63.10;41.10;;;;;;;3.65;100.00;100549.08;105861;1257;60829;-79
2024/02/02 03:59:46;;;;;;;69.20;43.70;;;;;;;3.65;100.00;100548.39;105949;1251;60161;-80
2024/02/02 04:02:16;;;;;;;67.10;41.40;;;;;;;3.66;100.00;100553.90;106014;1251;71844;-82
2024/02/02 04:04:44;;;;;;;66.40;41.60;;;;;;;3.67;100.00;100555.76;105824;1254;63768;-82
2024/02/02 04:07:11;;;;;;;65.10;42.20;;;;;;;3.67;100.00;100555.41;105857;1251;72392;-81
2024/02/02 04:09:38;;;;;;;68.60;44.80;;;;;;;3.71;100.00;100559.61;105814;1250;59723;-82
2024/02/02 04:12:06;;;;;;;67.40;45.80;;;;;;;3.72;100.00;100560.77;105974;1256;60282;-81
2024/02/02 04:14:32;;;;;;;77.30;47.40;;;;;;;3.74;100.00;100561.57;105982;1255;72210;-81
2024/02/02 04:17:01;;;;;;;75.00;47.70;;;;;;;3.75;100.00;100566.57;105874;1250;64001;-81
2024/02/02 04:19:29;;;;;;;68.40;43.20;;;;;;;3.75;100.00;100562.92;105993;1250;72879;-80
2024/02/02 04:21:56;;;;;;;64.10;42.90;;;;;;;3.75;100.00;100563.11;106008;1253;60926;-81
2024/02/02 04:24:22;;;;;;;71.40;41.90;;;;;;;3.71;100.00;100564.80;105963;1257;60311;-83
2024/02/02 04:26:49;;;;;;;57.00;37.70;;;;;;;3.69;100.00;100567.45;106039;1251;71847;-81
2024/02/02 04:29:16;;;;;;;60.60;37.30;;;;;;;3.69;100.00;100571.41;106003;1251;64044;-81
2024/02/02 04:31:43;;;;;;;53.50;35.00;;;;;;;3.70;100.00;100567.73;105923;1253;71564;-80
2024/02/02 04:34:10;;;;;;;51.40;33.00;;;;;;;3.71;100.00;100570.31;106106;1251;60358;-81
2024/02/02 04:36:38;;;;;;;45.60;31.00;;;;;;;3.71;100.00;100571.17;106051;1251;60321;-80
2024/02/02 04:39:06;;;;;;;48.90;31.90;;;;;;;3.65;100.00;100569.46;106077;1252;71920;-80
2024/02/02 04:41:32;;;;;;;39.90;28.40;;;;;;;3.68;100.00;100577.86;106026;1251;62919;-81
2024/02/02 04:43:59;;;;;;;46.40;33.60;;;;;;;3.66;100.00;100573.79;105946;1249;71926;-79
2024/02/02 04:46:26;;;;;;;47.40;29.50;;;;;;;3.64;100.00;100580.04;105945;1251;60226;-80
2024/02/02 04:48:52;;;;;;;43.60;29.70;;;;;;;3.62;100.00;100578.55;105889;1253;59580;-81
2024/02/02 04:51:19;;;;;;;45.00;30.30;;;;;;;3.62;100.00;100582.01;106004;1253;73077;-80
2024/02/02 04:53:46;;;;;;;41.70;29.70;;;;;;;3.63;100.00;100584.60;106414;1253;63764;-77
2024/02/02 04:56:14;;;;;;;51.70;32.10;;;;;;;3.62;100.00;100582.37;106304;1250;72733;-80
2024/02/02 04:58:42;;;;;;;49.30;33.20;;;;;;;3.61;100.00;100586.21;105964;1253;61067;-78
2024/02/02 05:01:09;;;;;;;53.70;33.80;;;;;;;3.59;100.00;100591.63;106120;1253;59619;-79
2024/02/02 05:03:36;;;;;;;59.80;38.20;;;;;;;3.56;100.00;100596.91;106233;1251;71889;-79
2024/02/02 05:06:03;;;;;;;62.20;40.00;;;;;;;3.50;100.00;100606.42;106083;1251;63084;-80
2024/02/02 05:08:30;;;;;;;69.10;40.70;;;;;;;3.44;100.00;100611.61;106121;1251;72635;-80
2024/02/02 05:10:58;;;;;;;64.20;40.20;;;;;;;3.38;100.00;100613.02;105787;1258;59964;-81
2024/02/02 05:13:25;;;;;;;68.40;40.80;;;;;;;3.33;100.00;100619.02;105838;1251;59605;-81
2024/02/02 05:15:53;;;;;;;67.40;42.70;;;;;;;3.26;100.00;100621.50;105856;1251;73031;-81
2024/02/02 05:18:20;;;;;;;76.00;44.80;;;;;;;3.18;100.00;100623.45;105980;1255;63923;-81
2024/02/02 05:20:49;;;;;;;65.00;43.20;;;;;;;3.11;100.00;100627.80;105974;1251;71351;-80
2024/02/02 05:23:15;;;;;;;66.70;42.00;;;;;;;3.05;100.00;100627.79;105946;1257;59910;-80
2024/02/02 05:25:42;;;;;;;66.40;42.80;;;;;;;3.02;100.00;100630.13;105999;1253;59644;-79
2024/02/02 05:28:09;;;;;;;66.80;43.90;;;;;;;3.00;100.00;100632.45;106012;1250;73064;-79
2024/02/02 05:30:37;;;;;;;60.00;40.10;;;;;;;2.99;100.00;100636.98;105993;1251;63688;-83
2024/02/02 05:33:05;;;;;;;57.50;35.50;;;;;;;2.98;100.00;100640.80;105955;1251;72712;-79
2024/02/02 05:35:32;;;;;;;50.70;32.60;;;;;;;2.94;100.00;100640.21;106021;1257;61345;-79
2024/02/02 05:38:00;;;;;;;51.00;35.10;;;;;;;2.90;100.00;100639.61;106045;1250;60227;-80
2024/02/02 05:40:27;;;;;;;49.90;31.50;;;;;;;2.90;100.00;100643.09;105991;1251;73001;-80
2024/02/02 05:42:59;;;;;;;45.40;31.30;;;;;;;2.88;100.00;100641.73;106033;1251;62617;-79
2024/02/02 05:45:26;;;;;;;43.40;29.20;;;;;;;2.88;100.00;100643.30;106007;1251;72676;-81
2024/02/02 05:47:54;;;;;;;38.10;27.10;;;;;;;2.88;100.00;100652.27;106036;1253;61072;-81
2024/02/02 05:50:21;;;;;;;42.50;25.30;;;;;;;2.86;100.00;100651.30;106017;1251;59982;-81
2024/02/02 05:52:48;;;;;;;35.20;21.90;;;;;;;2.86;100.00;100652.85;106035;1253;72945;-81
2024/02/02 05:55:15;;;;;;;33.40;23.10;;;;;;;2.86;100.00;100650.09;105997;1253;62523;-82
2024/02/02 05:57:42;;;;;;;32.40;22.70;;;;;;;2.87;100.00;100655.60;106084;1254;72682;-80
2024/02/02 06:00:13;;;;;;;35.00;23.10;;;;;;;2.90;100.00;100654.48;105948;1251;59732;-81
2024/02/02 06:02:41;;;;;;;34.90;21.70;;;;;;;2.95;100.00;100658.82;106052;1251;60269;-81
2024/02/02 06:05:10;;;;;;;29.40;20.50;;;;;;;3.00;100.00;100661.13;106390;1251;73057;-79
2024/02/02 06:07:37;;;;;;;29.10;18.90;;;;;;;3.04;100.00;100664.62;106578;1253;63678;-82
2024/02/02 06:10:04;;;;;;;25.00;18.60;;;;;;;3.11;100.00;100667.19;105976;1251;71607;-81
2024/02/02 06:12:34;;;;;;;24.50;17.90;;;;;;;3.20;100.00;100672.65;105994;1253;61199;-83
2024/02/02 06:15:04;;;;;;;29.20;16.70;;;;;;;3.28;100.00;100671.72;105986;1250;60953;-83
2024/02/02 06:17:33;;;;;;;25.20;16.70;;;;;;;3.40;100.00;100668.95;105966;1251;72746;-81
2024/02/02 06:20:00;;;;;;;21.50;14.50;;;;;;;3.54;100.00;100675.27;105939;1251;63105;-81
2024/02/02 06:22:28;;;;;;;21.10;14.50;;;;;;;3.65;100.00;100673.88;105950;1254;72620;-81
2024/02/02 06:24:54;;;;;;;21.80;14.40;;;;;;;3.75;100.00;100673.59;106095;1253;60412;-82
2024/02/02 06:27:22;;;;;;;19.60;14.60;;;;;;;3.82;100.00;100675.10;106056;1251;60488;-80
2024/02/02 06:29:50;;;;;;;22.30;15.70;;;;;;;3.86;100.00;100674.96;105988;1251;73947;-81
2024/02/02 06:32:21;;;;;;;19.50;14.80;;;;;;;3.88;100.00;100678.19;106287;1251;64028;-81
2024/02/02 06:34:55;;;;;;;23.80;16.00;;;;;;;3.89;100.00;100679.90;106463;1253;73957;-81
2024/02/02 06:37:27;;;;;;;22.00;14.20;;;;;;;3.91;100.00;100684.14;106404;1251;61057;-81
2024/02/02 06:39:56;;;;;;;26.40;15.50;;;;;;;3.92;100.00;100680.85;106185;1253;60517;-83
2024/02/02 06:42:26;;;;;;;23.80;14.80;;;;;;;3.90;100.00;100686.10;106046;1251;72642;-82
2024/02/02 06:44:55;;;;;;;20.70;13.10;;;;;;;3.89;100.00;100688.89;106252;1251;63728;-82
2024/02/02 06:47:21;;;;;;;19.90;15.40;;;;;;;3.89;100.00;100694.43;106106;1251;71517;-81
2024/02/02 06:49:48;;;;;;;14.90;12.60;;;;;;;3.89;100.00;100692.52;106086;1256;60975;-82
2024/02/02 06:52:16;;;;;;;19.00;14.30;;;;;;;3.89;100.00;100692.86;106485;1253;60475;-81
2024/02/02 06:54:44;;;;;;;21.20;13.70;;;;;;;3.88;100.00;100695.13;106322;1253;73903;-83
2024/02/02 06:57:12;;;;;;;14.50;11.20;;;;;;;3.91;100.00;100694.38;107081;1253;63859;-78
2024/02/02 06:59:40;;;;;;;17.40;11.00;;;;;;;3.93;100.00;100696.71;106159;1251;71301;-81
2024/02/02 07:02:19;;;;;;;19.10;12.10;;;;;;;3.90;100.00;100700.45;106750;1251;60372;-78
2024/02/02 07:04:47;;;;;;;17.70;12.60;;;;;;;3.84;100.00;100696.98;106846;1250;60373;-80
2024/02/02 07:07:14;;;;;;;16.80;12.00;;;;;;;3.81;100.00;100695.39;106341;1251;74173;-81
2024/02/02 07:09:48;;;;;;;18.50;11.70;;;;;;;3.82;100.00;100699.31;106443;1251;63894;-81
2024/02/02 07:12:56;;;;;;;19.10;11.90;;;;;;;3.81;100.00;100693.98;106391;1249;72633;-81
2024/02/02 07:15:28;;;;;;;14.40;11.00;;;;;;;3.80;100.00;100691.95;105923;1260;60388;-78
2024/02/02 07:17:56;;;;;;;14.60;10.90;;;;;;;3.81;100.00;100694.52;107352;1259;60286;-80
2024/02/02 07:20:28;;;;;;;15.70;10.80;;;;;;;3.84;100.00;100692.48;108033;1259;72385;-81
2024/02/02 07:22:56;;;;;;;17.20;10.90;;;;;;;3.92;100.00;100690.16;108034;1260;62705;-81
2024/02/02 07:25:25;;;;;;;14.00;10.70;;;;;;;4.03;100.00;100693.47;108261;1257;72883;-80
2024/02/02 07:27:55;;;;;;;15.60;10.50;;;;;;;4.12;100.00;100691.98;108212;1258;62151;-82
2024/02/02 07:30:55;;;;;;;18.50;10.50;;;;;;;4.21;100.00;100699.31;108180;1257;59065;-81
2024/02/02 07:33:28;;;;;;;17.70;11.50;;;;;;;4.27;100.00;100699.95;108040;1258;73204;-82
2024/02/02 07:35:58;;;;;;;;;;;;;;;4.30;100.00;100700.20;107670;1260;65079;-82
2024/02/02 07:38:53;;;;;;;16.30;11.60;;;;;;;4.34;100.00;100698.35;107493;1258;72653;-81
2024/02/02 07:41:23;;;;;;;19.30;11.30;;;;;;;4.39;100.00;100701.14;107690;1258;60601;-82
2024/02/02 07:43:54;;;;;;;19.50;13.00;;;;;;;4.46;100.00;100702.12;108074;1259;59461;-81
2024/02/02 07:46:22;;;;;;;20.20;13.80;;;;;;;4.55;100.00;100702.00;108181;1260;72958;-82
2024/02/02 07:48:53;;;;;;;22.70;14.60;;;;;;;4.57;100.00;100700.69;107913;1260;64513;-81
2024/02/02 07:51:23;;;;;;;21.00;14.00;;;;;;;4.60;100.00;100703.54;108077;1258;71848;-81
2024/02/02 07:53:52;;;;;;;21.50;13.10;;;;;;;4.61;100.00;100707.64;108228;1250;61462;-83
2024/02/02 07:56:23;;;;;;;17.90;12.90;;;;;;;4.66;100.00;100708.89;108923;1254;60427;-81
2024/02/02 07:58:58;;;;;;;20.20;14.40;;;;;;;4.72;100.00;100716.30;108712;1250;73624;-82
2024/02/02 08:01:31;;;;;;;22.00;14.60;;;;;;;4.77;100.00;100722.86;108699;1251;62241;-83
2024/02/02 08:04:01;;;;;;;19.70;12.70;;;;;;;4.84;100.00;100720.74;108818;1251;72434;-83
2024/02/02 08:06:31;;;;;;;17.50;12.20;;;;;;;4.89;100.00;100724.73;108720;1250;61273;-82
2024/02/02 08:09:09;;;;;;;14.30;10.90;;;;;;;4.95;100.00;100725.73;109043;1250;61289;-82
2024/02/02 08:11:41;;;;;;;14.70;10.10;;;;;;;5.03;100.00;100731.68;108556;1250;72760;-80
2024/02/02 08:14:10;;;;;;;14.00;9.30;;;;;;;5.11;100.00;100729.15;108358;1250;64757;-80
2024/02/02 08:16:38;;;;;;;13.10;9.00;;;;;;;5.17;100.00;100731.35;108368;1251;72034;-79
2024/02/02 08:19:09;;;;;;;16.10;9.90;;;;;;;5.25;100.00;100728.81;108933;1253;59977;-80
2024/02/02 08:21:38;;;;;;;11.80;7.70;;;;;;;5.30;100.00;100734.02;109243;1251;59244;-81
2024/02/02 08:24:24;;;;;;;10.50;7.50;;;;;;;5.34;100.00;100730.39;109030;1249;72826;-82
2024/02/02 08:26:56;;;;;;;11.40;7.90;;;;;;;5.37;100.00;100734.61;109084;1257;62650;-78
2024/02/02 08:29:30;;;;;;;11.20;7.60;;;;;;;5.47;100.00;100739.64;109040;1249;71335;-82
2024/02/02 08:32:04;;;;;;;16.30;9.40;;;;;;;5.51;100.00;100738.27;108782;1251;60903;-81
2024/02/02 08:34:32;;;;;;;11.80;9.10;;;;;;;5.52;100.00;100742.23;108283;1253;60441;-81
2024/02/02 08:37:01;;;;;;;13.30;7.30;;;;;;;5.50;100.00;100743.52;108473;1250;73566;-80
2024/02/02 08:39:34;;;;;;;11.50;7.90;;;;;;;5.50;100.00;100745.58;108814;1251;64324;-81
2024/02/02 08:42:21;;;;;;;10.90;7.10;;;;;;;5.44;100.00;100746.86;109320;1249;70693;-81
2024/02/02 08:45:29;;;;;;;11.40;6.60;;;;;;;5.39;100.00;100748.91;109667;1249;59938;-81
2024/02/02 08:47:57;;;;;;;17.20;8.00;;;;;;;5.39;100.00;100744.41;109362;1250;58848;-81
2024/02/02 08:51:00;;;;;;;12.60;6.90;;;;;;;5.36;100.00;100743.86;108401;1251;75153;-81
2024/02/02 08:53:30;;;;;;;10.90;7.00;;;;;;;5.35;100.00;100740.77;107244;1250;63901;-80
2024/02/02 08:56:00;;;;;;;12.60;7.00;;;;;;;5.36;100.00;100734.50;107447;1250;71407;-81
2024/02/02 08:58:34;;;;;;;12.30;7.40;;;;;;;5.40;100.00;100736.23;107333;1249;61089;-80
2024/02/02 09:01:03;;;;;;;13.80;7.20;;;;;;;5.49;100.00;100737.30;107479;1250;60399;-81
2024/02/02 09:03:43;;;;;;;11.10;7.30;;;;;;;5.62;100.00;100733.70;107546;1251;73496;-81
2024/02/02 09:06:48;;;;;;;8.40;5.80;;;;;;;5.77;100.00;100732.77;107506;1254;62693;-81
2024/02/02 09:09:17;;;;;;;10.30;6.60;;;;;;;5.85;100.00;100732.49;106988;1250;73607;-81
2024/02/02 09:12:17;;;;;;;11.80;6.50;;;;;;;5.89;100.00;100727.66;109299;1253;60655;-81
2024/02/02 09:14:45;;;;;;;10.40;6.30;;;;;;;5.88;100.00;100721.63;107756;1251;60252;-81
2024/02/02 09:17:13;;;;;;;10.20;6.20;;;;;;;5.86;100.00;100712.52;107601;1251;72607;-79
2024/02/02 09:19:41;;;;;;;12.50;8.90;;;;;;;5.87;100.00;100712.46;106955;1250;62709;-82
2024/02/02 09:22:18;;;;;;;19.30;9.70;;;;;;;5.89;100.00;100709.43;107365;1252;72649;-82
2024/02/02 09:24:46;;;;;;;13.80;9.20;;;;;;;5.94;100.00;100703.00;107822;1250;60335;-80
2024/02/02 09:27:22;;;;;;;18.00;8.30;;;;;;;6.05;100.00;100702.25;108817;1250;59014;-79
2024/02/02 09:29:51;;;;;;;13.60;7.50;;;;;;;6.13;100.00;100696.52;108603;1250;72692;-80
2024/02/02 09:32:19;;;;;;;10.50;6.60;;;;;;;6.14;100.00;100698.23;108468;1256;62756;-81
2024/02/02 09:34:47;;;;;;;17.00;8.50;;;;;;;6.11;100.00;100695.76;108210;1256;72715;-81
2024/02/02 09:37:25;;;;;;;8.20;5.00;;;;;;;6.07;100.00;100706.48;108832;1250;60150;-79
2024/02/02 09:39:54;;;;;;;10.80;4.20;;;;;;;6.07;100.00;100701.98;108654;1251;60501;-80
2024/02/02 09:42:35;;;;;;;5.40;3.30;;;;;;;5.98;100.00;100700.77;108515;1251;72685;-82
2024/02/02 09:45:11;;;;;;;11.10;4.40;;;;;;;5.84;100.00;100704.05;108586;1250;62998;-80
2024/02/02 09:48:04;;;;;;;8.70;4.30;;;;;;;5.79;100.00;100707.03;108207;1249;71665;-83
2024/02/02 09:51:05;;;;;;;12.70;6.30;;;;;;;5.77;100.00;100704.16;107846;1251;60554;-81
2024/02/02 09:53:35;;;;;;;6.70;4.10;;;;;;;5.78;100.00;100703.61;108972;1251;60322;-81
2024/02/02 09:56:54;;;;;;;11.00;4.80;;;;;;;5.80;100.00;100699.54;109375;1250;73559;-82
2024/02/02 09:59:57;;;;;;;11.80;6.70;;;;;;;6.01;100.00;100696.98;109571;1251;65397;-81
2024/02/02 10:02:38;;;;;;;11.40;5.00;;;;;;;6.58;100.00;100691.89;109025;1250;70975;-80
2024/02/02 10:05:24;;;;;;;7.20;4.10;;;;;;;7.18;100.00;100694.17;108875;1250;60431;-84
2024/02/02 10:08:34;;;;;;;6.60;4.30;;;;;;;7.53;100.00;100694.32;108388;1251;60501;-82
2024/02/02 10:11:21;;;;;;;9.20;4.10;;;;;;;7.59;99.73;100697.38;109066;1249;73545;-83
2024/02/02 10:14:25;;;;;;;8.10;3.90;;;;;;;7.43;94.49;100693.55;109348;1251;63623;-82
2024/02/02 10:17:49;;;;;;;7.90;3.50;;;;;;;7.17;90.13;100693.89;109108;1251;71377;-81
2024/02/02 10:21:15;;;;;;;11.50;4.50;;;;;;;6.92;94.61;100690.29;108913;1250;60553;-82
2024/02/02 10:24:05;;;;;;;6.60;3.80;;;;;;;6.75;98.30;100694.98;106085;1250;60444;-81
2024/02/02 10:27:01;;;;;;;8.60;3.20;;;;;;;6.58;98.70;100692.77;106308;1251;73826;-83
2024/02/02 10:30:07;;;;;;;9.70;4.30;;;;;;;6.38;99.46;100695.86;106433;1251;64041;-82
2024/02/02 10:33:05;;;;;;;7.10;3.80;;;;;;;6.13;100.00;100693.59;106603;1257;73082;-81
2024/02/02 10:35:39;;;;;;;9.50;4.30;;;;;;;5.96;100.00;100697.21;106266;1251;60968;-85
2024/02/02 10:38:33;;;;;;;11.10;4.70;;;;;;;5.84;100.00;100699.22;106156;1251;60710;-82
2024/02/02 10:41:27;;;;;;;5.30;3.20;;;;;;;5.78;100.00;100697.17;105693;1262;74806;-82
2024/02/02 10:44:17;;;;;;;6.60;3.10;;;;;;;5.78;100.00;100699.96;106161;1257;63916;-82
2024/02/02 10:46:51;;;;;;;7.50;3.70;;;;;;;5.83;100.00;100698.20;106605;1257;71869;-81
2024/02/02 10:49:31;;;;;;;9.20;3.10;;;;;;;5.82;100.00;100698.23;106304;1261;60409;-80
2024/02/02 10:52:23;;;;;;;6.50;2.50;;;;;;;5.78;100.00;100697.15;105406;1261;60536;-80
2024/02/02 10:55:16;;;;;;;4.80;2.60;;;;;;;5.77;100.00;100703.64;105668;1257;71867;-81
2024/02/02 10:57:53;;;;;;;6.90;2.60;;;;;;;5.76;100.00;100703.89;105543;1257;65101;-81
2024/02/02 11:00:21;;;;;;;7.10;2.90;;;;;;;5.77;100.00;100709.36;105394;1260;72393;-83
2024/02/02 11:02:54;;;;;;;8.30;2.50;;;;;;;5.78;100.00;100711.59;105444;1257;60530;-81
2024/02/02 11:05:25;;;;;;;4.70;2.10;;;;;;;5.75;100.00;100715.86;105470;1257;60579;-84
2024/02/02 11:08:08;;;;;;;7.20;3.00;;;;;;;5.68;100.00;100712.30;105395;1257;72822;-82
2024/02/02 11:10:59;;;;;;;5.70;2.90;;;;;;;5.60;100.00;100709.13;105470;1262;65135;-83
2024/02/02 11:13:44;;;;;;;6.10;2.80;;;;;;;5.56;100.00;100710.14;105549;1257;72606;-83
2024/02/02 11:16:30;;;;;;;4.40;1.50;;;;;;;5.55;100.00;100710.02;105465;1257;60668;-82
2024/02/02 11:19:06;;;;;;;8.20;2.00;;;;;;;5.54;100.00;100713.02;106304;1251;61095;-82
2024/02/02 11:21:42;;;;;;;4.10;1.90;;;;;;;5.54;100.00;100710.77;108527;1251;71821;-81
2024/02/02 11:24:21;;;;;;;5.60;2.00;;;;;;;5.62;100.00;100709.42;107308;1255;62798;-82
2024/02/02 11:27:04;;;;;;;7.10;2.40;;;;;;;5.72;97.82;100705.76;107081;1250;74169;-80
2024/02/02 11:29:40;;;;;;;5.10;1.90;;;;;;;5.79;93.95;100706.00;106278;1256;60639;-82
2024/02/02 11:32:33;;;;;;;3.10;1.40;;;;;;;5.85;86.93;100706.27;106146;1253;60533;-83
2024/02/02 11:35:11;;;;;;;8.90;2.10;;;;;;;5.87;81.47;100708.30;106112;1251;72369;-82
2024/02/02 11:38:24;;;;;;;3.20;1.60;;;;;;;5.86;79.78;100707.27;106457;1253;62904;-81
2024/02/02 11:40:54;;;;;;;1.60;1.10;;;;;;;5.88;78.10;100715.52;105889;1257;71168;-81
2024/02/02 11:43:44;;;;;;;5.30;1.60;;;;;;;5.86;78.83;100719.79;105610;1259;60527;-81
2024/02/02 11:46:12;;;;;;;3.50;1.80;;;;;;;5.77;79.17;100721.34;105503;1257;60588;-82